createdAt,value
2023-02-08T00:02:02.354Z,82.19
2023-02-08T00:07:09.990Z,82.26
2023-02-08T00:12:16.239Z,82.11
2023-02-08T00:17:22.700Z,82.32
2023-02-08T00:22:30.762Z,82.02
2023-02-08T00:27:37.224Z,82.47
2023-02-08T00:32:43.490Z,82.37
2023-02-08T00:37:52.618Z,82.12
2023-02-08T00:42:58.644Z,81.77
2023-02-08T00:48:05.044Z,81.96
2023-02-08T00:53:12.536Z,81.59
2023-02-08T00:58:18.491Z,81.75
2023-02-08T01:03:25.731Z,81.73
2023-02-08T01:08:33.703Z,81.30
2023-02-08T01:13:40.875Z,80.65
2023-02-08T01:18:51.601Z,80.71
2023-02-08T01:23:59.614Z,80.03
2023-02-08T01:29:06.681Z,80.65
2023-02-08T01:34:13.761Z,80.15
2023-02-08T01:39:24.082Z,81.11
2023-02-08T01:45:23.630Z,81.46
2023-02-08T01:50:36.776Z,81.34
2023-02-08T01:55:49.905Z,81.06
2023-02-08T02:00:56.493Z,81.46
2023-02-08T02:06:10.070Z,81.76
2023-02-08T02:11:20.107Z,81.37
2023-02-08T02:16:26.314Z,81.37
2023-02-08T02:21:47.682Z,81.71
2023-02-08T02:27:33.248Z,81.48
2023-02-08T02:33:18.597Z,81.53
2023-02-08T02:38:41.266Z,81.85
2023-02-08T02:43:53.693Z,82.49
2023-02-08T02:49:07.584Z,82.58
2023-02-08T02:54:20.273Z,82.56
2023-02-08T02:59:28.780Z,82.67
2023-02-08T03:04:54.707Z,82.83
2023-02-08T03:10:14.793Z,82.80
2023-02-08T03:15:32.088Z,82.66
2023-02-08T03:20:44.640Z,82.66
2023-02-08T03:25:55.701Z,82.67
2023-02-08T03:31:12.403Z,82.16
2023-02-08T03:36:28.883Z,82.82
2023-02-08T03:41:40.747Z,83.16
2023-02-08T03:46:53.894Z,82.50
2023-02-08T03:52:06.890Z,83.15
2023-02-08T03:57:19.461Z,82.92
2023-02-08T04:02:30.225Z,83.67
2023-02-08T04:07:38.320Z,83.66
2023-02-08T04:12:44.561Z,83.63
2023-02-08T04:17:50.606Z,83.66
2023-02-08T04:22:58.570Z,83.91
2023-02-08T04:28:05.731Z,84.31
2023-02-08T04:33:13.354Z,84.10
2023-02-08T04:38:21.212Z,84.06
2023-02-08T04:43:27.402Z,83.90
2023-02-08T04:48:33.813Z,83.74
2023-02-08T04:53:41.378Z,83.94
2023-02-08T04:58:48.775Z,84.45
2023-02-08T05:03:54.850Z,84.41
2023-02-08T05:09:02.385Z,84.55
2023-02-08T05:14:08.696Z,84.93
2023-02-08T05:19:14.803Z,85.12
2023-02-08T05:24:22.324Z,85.50
2023-02-08T05:29:28.457Z,85.27
2023-02-08T05:34:36.266Z,84.84
2023-02-08T05:39:44.260Z,84.98
2023-02-08T05:44:50.689Z,84.80
2023-02-08T05:49:56.875Z,84.88
2023-02-08T05:55:06.439Z,85.82
2023-02-08T06:00:14.522Z,85.70
2023-02-08T06:05:23.692Z,85.97
2023-02-08T06:10:31.616Z,86.17
2023-02-08T06:15:37.907Z,85.65
2023-02-08T06:20:44.364Z,85.65
2023-02-08T06:25:53.953Z,85.42
2023-02-08T06:31:00.495Z,85.74
2023-02-08T06:36:07.511Z,85.88
2023-02-08T06:41:15.220Z,85.08
2023-02-08T06:46:23.369Z,85.06
2023-02-08T06:51:29.720Z,85.31
2023-02-08T06:56:37.160Z,85.34
2023-02-08T07:01:43.475Z,85.57
2023-02-08T07:06:50.904Z,85.48
2023-02-08T07:11:58.478Z,85.68
2023-02-08T07:17:05.130Z,85.66
2023-02-08T07:22:11.670Z,85.26
2023-02-08T07:27:19.634Z,85.14
2023-02-08T07:32:25.974Z,85.05
2023-02-08T07:37:33.475Z,85.09
2023-02-08T07:42:40.986Z,85.08
2023-02-08T07:48:07.527Z,84.77
2023-02-08T07:53:13.870Z,84.46
2023-02-08T07:58:21.531Z,84.14
2023-02-08T08:03:29.192Z,83.71
2023-02-08T08:08:35.660Z,83.45
2023-02-08T08:13:43.497Z,83.29
2023-02-08T08:18:51.122Z,83.50
2023-02-08T08:23:57.315Z,83.27
2023-02-08T08:29:06.745Z,82.75
2023-02-08T08:34:13.077Z,82.40
2023-02-08T08:39:19.711Z,82.18
2023-02-08T08:44:27.447Z,82.10
2023-02-08T08:49:33.904Z,82.31
2023-02-08T08:54:40.497Z,82.13
2023-02-08T08:59:48.320Z,81.67
2023-02-08T09:04:54.653Z,81.83
2023-02-08T09:10:00.751Z,82.26
2023-02-08T09:15:09.923Z,82.43
2023-02-08T09:20:16.280Z,82.92
2023-02-08T09:25:22.552Z,83.18
2023-02-08T09:30:30.482Z,83.51
2023-02-08T09:35:36.874Z,83.34
2023-02-08T09:40:57.120Z,83.23
2023-02-08T09:46:10.000Z,83.66
2023-02-08T09:51:29.618Z,84.07
2023-02-08T09:56:40.735Z,84.37
2023-02-08T10:01:52.249Z,84.32
2023-02-08T10:06:58.625Z,83.81
2023-02-08T10:12:16.967Z,83.87
2023-02-08T10:17:53.357Z,83.81
2023-02-08T10:23:13.828Z,84.13
2023-02-08T10:28:49.652Z,84.00
2023-02-08T10:34:08.128Z,84.20
2023-02-08T10:39:20.175Z,83.58
2023-02-08T10:44:38.029Z,83.37
2023-02-08T10:49:56.858Z,83.19
2023-02-08T10:55:03.595Z,83.27
2023-02-08T11:00:19.607Z,83.06
2023-02-08T11:05:37.727Z,83.28
2023-02-08T11:10:48.410Z,83.26
2023-02-08T11:15:57.971Z,83.39
2023-02-08T11:21:11.486Z,83.00
2023-02-08T11:26:22.585Z,83.34
2023-02-08T11:31:29.031Z,83.33
2023-02-08T11:36:38.993Z,83.56
2023-02-08T11:41:47.655Z,83.02
2023-02-08T11:46:55.830Z,82.17
2023-02-08T11:52:04.006Z,81.48
2023-02-08T11:57:20.852Z,81.34
2023-02-08T12:02:38.833Z,81.43
2023-02-08T12:08:12.889Z,80.92
2023-02-08T12:14:03.436Z,79.57
2023-02-08T12:20:01.220Z,77.72
2023-02-08T12:25:30.227Z,78.73
2023-02-08T12:30:42.034Z,79.02
2023-02-08T12:36:25.365Z,79.18
2023-02-08T12:41:39.692Z,78.57
2023-02-08T12:47:08.101Z,77.67
2023-02-08T12:52:31.813Z,77.25
2023-02-08T12:57:43.459Z,76.66
2023-02-08T13:03:00.554Z,75.77
2023-02-08T13:08:28.294Z,76.34
2023-02-08T13:13:40.559Z,75.95
2023-02-08T13:18:54.637Z,76.05
2023-02-08T13:24:02.025Z,76.63
2023-02-08T13:29:17.730Z,76.11
2023-02-08T13:34:34.356Z,76.48
2023-02-08T13:39:46.578Z,77.60
2023-02-08T13:44:57.940Z,76.72
2023-02-08T13:50:10.069Z,76.13
2023-02-08T13:55:46.120Z,75.02
2023-02-08T14:01:20.721Z,76.24
2023-02-08T14:06:31.081Z,76.17
2023-02-08T14:11:49.700Z,76.00
2023-02-08T14:17:21.807Z,76.16
2023-02-08T14:22:38.014Z,75.64
2023-02-08T14:27:53.017Z,75.35
2023-02-08T14:33:20.050Z,76.05
2023-02-08T14:39:25.146Z,75.57
2023-02-08T14:45:03.897Z,75.60
2023-02-08T14:50:20.713Z,75.32
2023-02-08T14:55:32.147Z,75.76
2023-02-08T15:00:40.632Z,77.35
2023-02-08T15:06:26.219Z,77.31
2023-02-08T15:11:36.635Z,75.60
2023-02-08T15:16:45.285Z,75.53
2023-02-08T15:21:53.318Z,75.96
2023-02-08T15:26:59.955Z,74.99
2023-02-08T15:32:13.815Z,75.66
2023-02-08T15:37:22.322Z,76.49
2023-02-08T15:42:31.844Z,76.33
2023-02-08T15:47:40.289Z,76.11
2023-02-08T15:52:49.744Z,75.82
2023-02-08T15:58:03.166Z,77.10
2023-02-08T16:03:18.218Z,77.80
2023-02-08T16:08:29.167Z,77.29
2023-02-08T16:13:40.654Z,77.47
2023-02-08T16:18:50.435Z,77.29
2023-02-08T16:24:00.274Z,77.59
2023-02-08T16:29:09.653Z,77.36
2023-02-08T16:34:21.471Z,77.57
2023-02-08T16:39:58.464Z,76.66
2023-02-08T16:45:22.947Z,77.39
2023-02-08T16:50:30.800Z,77.04
2023-02-08T16:55:39.828Z,77.19
2023-02-08T17:00:47.159Z,77.86
2023-02-08T17:05:55.101Z,78.44
2023-02-08T17:11:03.732Z,77.93
2023-02-08T17:16:16.663Z,78.61
2023-02-08T17:21:24.180Z,78.24
2023-02-08T17:26:42.623Z,78.03
2023-02-08T17:31:51.913Z,78.27
2023-02-08T17:36:59.357Z,78.18
2023-02-08T17:42:12.650Z,78.44
2023-02-08T17:47:21.071Z,78.81
2023-02-08T17:52:29.482Z,77.74
2023-02-08T17:57:41.686Z,78.21
2023-02-08T18:02:52.423Z,78.07
2023-02-08T18:08:00.194Z,77.53
2023-02-08T18:13:11.763Z,77.66
2023-02-08T18:18:21.063Z,77.08
2023-02-08T18:23:29.641Z,76.30
2023-02-08T18:28:39.529Z,76.31
2023-02-08T18:33:48.224Z,77.05
2023-02-08T18:39:00.994Z,76.06
2023-02-08T18:44:13.412Z,76.69
2023-02-08T18:49:22.517Z,76.66
2023-02-08T18:54:31.917Z,76.27
2023-02-08T18:59:42.833Z,75.40
2023-02-08T19:04:52.005Z,77.50
2023-02-08T19:10:08.401Z,78.12
2023-02-08T19:15:20.796Z,79.09
2023-02-08T19:20:32.600Z,78.33
2023-02-08T19:25:43.260Z,78.69
2023-02-08T19:30:54.337Z,77.39
2023-02-08T19:36:11.803Z,78.03
2023-02-08T19:41:24.396Z,78.01
2023-02-08T19:46:36.613Z,78.10
2023-02-08T19:51:44.810Z,77.74
2023-02-08T19:56:55.555Z,76.72
2023-02-08T20:02:07.836Z,77.14
2023-02-08T20:07:16.922Z,77.23
2023-02-08T20:12:26.409Z,76.40
2023-02-08T20:17:36.970Z,75.77
2023-02-08T20:22:45.926Z,77.13
2023-02-08T20:28:01.119Z,77.20
2023-02-08T20:33:11.205Z,77.81
2023-02-08T20:38:23.068Z,76.36
2023-02-08T20:43:31.222Z,77.52
2023-02-08T20:48:41.546Z,78.45
2023-02-08T20:53:54.244Z,77.03
2023-02-08T20:59:06.971Z,76.05
2023-02-08T21:04:20.605Z,75.84
2023-02-08T21:09:29.106Z,77.16
2023-02-08T21:14:36.741Z,76.12
2023-02-08T21:19:44.798Z,76.77
2023-02-08T21:24:52.270Z,77.14
2023-02-08T21:29:59.680Z,77.37
2023-02-08T21:35:08.612Z,77.75
2023-02-08T21:40:15.424Z,78.71
2023-02-08T21:45:22.098Z,78.17
2023-02-08T21:50:48.231Z,76.93
2023-02-08T21:55:54.700Z,77.44
2023-02-08T22:01:01.073Z,77.18
2023-02-08T22:06:27.199Z,77.01
2023-02-08T22:11:33.573Z,78.30
2023-02-08T22:16:40.434Z,77.92
2023-02-08T22:21:47.999Z,77.52
2023-02-08T22:26:54.374Z,78.53
2023-02-08T22:32:01.381Z,77.45
2023-02-08T22:37:09.665Z,77.90
2023-02-08T22:42:15.834Z,76.68
2023-02-08T22:47:22.363Z,77.24
2023-02-08T22:52:30.648Z,76.55
2023-02-08T22:57:38.025Z,75.71
2023-02-08T23:02:44.227Z,75.62
2023-02-08T23:07:52.189Z,74.40
2023-02-08T23:12:58.407Z,74.45
2023-02-08T23:18:04.855Z,75.55
2023-02-08T23:23:12.663Z,76.50
2023-02-08T23:28:18.866Z,75.77
2023-02-08T23:33:24.954Z,76.27
2023-02-08T23:38:32.876Z,75.80
2023-02-08T23:43:39.590Z,76.10
2023-02-08T23:48:47.901Z,76.55
2023-02-08T23:53:56.145Z,76.38
2023-02-08T23:59:02.669Z,77.83
